Time;durP1;ratioP1;P1;durP2;ratioP2;P2;SDS_P1;SDS_P2;PMS_P1;PMS_P2;Temp;Humidity;BMP_temperature;BMP_pressure;BME280_temperature;BME280_humidity;BME280_pressure;Samples;Min_cycle;Max_cycle;Signal;HPM_P1;HPM_P2
2023/06/19 00:00:15;;;;;;;6.80;3.60;;;24.70;77.60;;;;;;4961639;28;20039;-68
2023/06/19 00:02:42;;;;;;;5.60;2.83;;;24.70;78.30;;;;;;4967310;28;20049;-68
2023/06/19 00:05:09;;;;;;;5.30;3.15;;;24.70;78.70;;;;;;4967287;28;20391;-68
2023/06/19 00:07:38;;;;;;;5.57;3.67;;;24.60;78.90;;;;;;4933466;28;20480;-68
2023/06/19 00:10:05;;;;;;;5.30;3.03;;;24.60;79.20;;;;;;4966824;28;20081;-68
2023/06/19 00:12:32;;;;;;;6.07;3.40;;;24.60;79.10;;;;;;4966055;28;20034;-68
2023/06/19 00:14:58;;;;;;;7.80;3.70;;;24.60;79.20;;;;;;4967051;28;20514;-69
2023/06/19 00:17:25;;;;;;;7.68;2.97;;;24.50;79.40;;;;;;4966035;28;20041;-68
2023/06/19 00:19:52;;;;;;;5.00;2.80;;;24.50;79.40;;;;;;4944114;28;20062;-68
2023/06/19 00:22:18;;;;;;;6.57;2.95;;;24.40;80.20;;;;;;4947469;29;20030;-68
2023/06/19 00:24:44;;;;;;;5.80;3.28;;;24.40;80.50;;;;;;4958853;28;20663;-68
2023/06/19 00:27:10;;;;;;;9.48;3.92;;;24.30;80.00;;;;;;4965900;28;20105;-68
2023/06/19 00:29:35;;;;;;;7.15;3.60;;;24.30;80.40;;;;;;4965592;28;20069;-68
2023/06/19 00:32:01;;;;;;;6.45;2.80;;;24.40;81.00;;;;;;4965870;28;20545;-69
2023/06/19 00:34:30;;;;;;;6.82;3.42;;;24.30;81.60;;;;;;4966688;28;20093;-68
2023/06/19 00:36:57;;;;;;;7.00;4.07;;;24.20;82.80;;;;;;4948671;28;20384;-68
2023/06/19 00:39:25;;;;;;;5.55;3.35;;;23.90;84.50;;;;;;4966706;28;20510;-68
2023/06/19 00:41:55;;;;;;;6.18;3.72;;;23.80;86.40;;;;;;4965443;28;20034;-69
2023/06/19 00:44:21;;;;;;;7.72;3.28;;;23.80;86.20;;;;;;4944473;28;20093;-68
2023/06/19 00:46:59;;;;;;;4.55;2.75;;;23.80;85.60;;;;;;4948291;28;20038;-68
2023/06/19 00:49:27;;;;;;;6.55;3.45;;;23.90;86.20;;;;;;4945141;28;20043;-68
2023/06/19 00:51:53;;;;;;;6.22;3.33;;;23.80;85.90;;;;;;4947942;28;20435;-68
2023/06/19 00:54:19;;;;;;;7.30;4.00;;;23.80;86.00;;;;;;4949310;28;20035;-67
2023/06/19 00:56:45;;;;;;;9.30;3.65;;;23.70;87.10;;;;;;4965320;28;20912;-68
2023/06/19 00:59:18;;;;;;;7.72;3.70;;;23.60;88.50;;;;;;4966486;28;20133;-68
2023/06/19 01:01:45;;;;;;;5.85;3.40;;;23.50;89.60;;;;;;4947819;28;20026;-67
2023/06/19 01:04:12;;;;;;;6.53;3.67;;;23.40;90.10;;;;;;4963819;28;20039;-68
2023/06/19 01:06:55;;;;;;;7.63;4.50;;;23.30;90.50;;;;;;4943359;28;20035;-68
2023/06/19 01:09:22;;;;;;;6.90;3.83;;;23.30;90.40;;;;;;4962745;28;20039;-69
2023/06/19 01:11:55;;;;;;;5.63;3.10;;;23.10;90.40;;;;;;4949702;29;20031;-69
2023/06/19 01:14:45;;;;;;;5.53;3.28;;;23.00;90.00;;;;;;4938207;28;20781;-69
2023/06/19 01:17:11;;;;;;;10.20;3.70;;;23.00;90.00;;;;;;4957994;28;20043;-69
2023/06/19 01:19:37;;;;;;;9.63;3.97;;;22.80;90.10;;;;;;4947218;28;20166;-70
2023/06/19 01:22:05;;;;;;;9.20;3.55;;;22.90;90.10;;;;;;4951133;29;20114;-68
2023/06/19 01:24:31;;;;;;;7.05;3.38;;;22.90;89.90;;;;;;4960887;28;20038;-67
2023/06/19 01:26:57;;;;;;;5.72;3.53;;;23.00;90.80;;;;;;4961832;28;20031;-67
2023/06/19 01:29:22;;;;;;;6.20;3.53;;;23.10;90.80;;;;;;4971057;28;20041;-66
2023/06/19 01:32:29;;;;;;;7.28;3.97;;;23.10;91.10;;;;;;4932181;29;20027;-66
2023/06/19 01:34:58;;;;;;;5.93;3.60;;;23.10;91.10;;;;;;4922626;28;20070;-66
2023/06/19 01:37:27;;;;;;;5.43;3.55;;;23.10;90.90;;;;;;4942259;28;20031;-66
2023/06/19 01:39:57;;;;;;;9.40;4.63;;;23.20;90.80;;;;;;4949822;28;20049;-66
2023/06/19 01:42:23;;;;;;;6.40;3.67;;;23.20;91.00;;;;;;4934781;28;20030;-66
2023/06/19 01:44:50;;;;;;;7.82;3.95;;;23.20;91.20;;;;;;4966457;28;20525;-66
2023/06/19 01:47:19;;;;;;;6.05;3.50;;;23.30;91.10;;;;;;4938709;28;20041;-66
2023/06/19 01:49:46;;;;;;;6.68;3.60;;;23.20;91.40;;;;;;4948567;28;20041;-66
2023/06/19 01:52:13;;;;;;;7.00;4.10;;;23.20;91.30;;;;;;4957799;28;20038;-66
2023/06/19 01:54:39;;;;;;;5.93;3.15;;;23.30;91.60;;;;;;4958511;28;20113;-66
2023/06/19 01:57:06;;;;;;;4.95;3.08;;;23.30;91.10;;;;;;4946997;28;20101;-66
2023/06/19 01:59:31;;;;;;;5.68;3.42;;;23.30;90.30;;;;;;4966727;28;20398;-66
2023/06/19 02:01:57;;;;;;;4.32;2.80;;;23.30;90.30;;;;;;4939040;28;20033;-66
2023/06/19 02:04:23;;;;;;;5.00;2.83;;;23.30;90.30;;;;;;4967176;28;20042;-66
2023/06/19 02:06:49;;;;;;;5.63;3.28;;;23.40;90.40;;;;;;4945783;28;20038;-66
2023/06/19 02:09:14;;;;;;;5.72;2.92;;;23.40;90.40;;;;;;4949589;28;20038;-66
2023/06/19 02:11:40;;;;;;;5.18;2.55;;;23.40;90.50;;;;;;4949801;28;20054;-66
2023/06/19 02:14:06;;;;;;;7.60;3.10;;;23.40;90.60;;;;;;4943717;28;20280;-66
2023/06/19 02:16:32;;;;;;;6.03;3.03;;;23.40;91.10;;;;;;4938211;28;20054;-66
2023/06/19 02:18:57;;;;;;;6.88;3.65;;;23.20;91.80;;;;;;4937697;28;20411;-66
2023/06/19 02:21:23;;;;;;;4.03;2.70;;;23.10;92.60;;;;;;4938661;28;20698;-66
2023/06/19 02:23:49;;;;;;;7.47;3.35;;;23.10;92.20;;;;;;4936549;28;20038;-66
2023/06/19 02:26:15;;;;;;;4.22;2.58;;;23.10;92.00;;;;;;4920998;28;20315;-66
2023/06/19 02:28:41;;;;;;;4.57;2.92;;;23.20;91.70;;;;;;4931356;28;20434;-66
2023/06/19 02:31:07;;;;;;;4.35;2.63;;;23.30;91.50;;;;;;4937281;28;20067;-66
2023/06/19 02:33:32;;;;;;;4.53;2.50;;;23.30;91.70;;;;;;4937723;28;20113;-66
2023/06/19 02:35:58;;;;;;;4.25;2.30;;;23.30;92.00;;;;;;4935904;28;20043;-66
2023/06/19 02:38:30;;;;;;;4.90;2.33;;;23.20;92.70;;;;;;4936892;28;20114;-67
2023/06/19 02:41:01;;;;;;;5.20;3.08;;;23.20;92.90;;;;;;4937093;28;20122;-66
2023/06/19 02:43:26;;;;;;;;;;;23.20;92.80;;;;;;4924595;28;20051;-66
2023/06/19 02:45:52;;;;;;;17.13;3.35;;;23.20;93.20;;;;;;4934821;28;19918;-66
2023/06/19 02:48:19;;;;;;;5.63;2.65;;;23.10;93.50;;;;;;4939027;28;20035;-66
2023/06/19 02:50:45;;;;;;;6.80;2.67;;;23.20;93.90;;;;;;4982643;23;20096;-66
2023/06/19 02:53:11;;;;;;;5.03;2.70;;;23.10;94.30;;;;;;4970159;28;20038;-44
2023/06/19 02:55:36;;;;;;;3.60;2.00;;;23.10;94.60;;;;;;4981998;28;20070;-51
2023/06/19 02:58:03;;;;;;;5.55;2.97;;;23.10;95.00;;;;;;4994698;28;20034;-50
2023/06/19 03:00:29;;;;;;;5.53;2.58;;;23.10;95.30;;;;;;4993571;28;20045;-46
2023/06/19 03:02:54;;;;;;;5.15;2.58;;;23.00;96.00;;;;;;4994673;28;20034;-45
2023/06/19 03:05:20;;;;;;;4.72;2.38;;;22.90;96.80;;;;;;4993960;28;20041;-44
2023/06/19 03:07:46;;;;;;;5.68;2.03;;;22.90;97.50;;;;;;4994322;28;20023;-44
2023/06/19 03:10:12;;;;;;;4.13;1.95;;;22.90;98.20;;;;;;4993496;28;20030;-47
2023/06/19 03:12:39;;;;;;;3.63;2.03;;;22.80;99.20;;;;;;4994546;28;20038;-51
2023/06/19 03:15:05;;;;;;;3.20;1.88;;;22.70;99.90;;;;;;4993733;28;20026;-45
2023/06/19 03:17:31;;;;;;;3.55;1.90;;;22.80;99.90;;;;;;4994486;28;20474;-44
2023/06/19 03:19:57;;;;;;;2.45;1.58;;;22.60;99.90;;;;;;4975830;28;20113;-44
2023/06/19 03:22:23;;;;;;;3.80;1.88;;;22.60;99.90;;;;;;4994262;28;20745;-44
2023/06/19 03:24:48;;;;;;;3.25;2.00;;;22.50;99.90;;;;;;4993545;28;20038;-45
2023/06/19 03:27:14;;;;;;;3.45;1.80;;;22.50;99.90;;;;;;4994398;28;20026;-46
2023/06/19 03:29:40;;;;;;;3.00;1.58;;;22.40;99.90;;;;;;4993146;28;20490;-45
2023/06/19 03:32:06;;;;;;;2.85;1.70;;;22.30;99.90;;;;;;4994113;28;20082;-51
2023/06/19 03:34:32;;;;;;;3.10;1.77;;;22.10;99.90;;;;;;4975994;28;20121;-45
2023/06/19 03:36:57;;;;;;;3.35;1.83;;;22.00;99.90;;;;;;4994451;28;20170;-47
2023/06/19 03:39:24;;;;;;;3.38;1.80;;;22.10;99.90;;;;;;4993103;28;20514;-49
2023/06/19 03:41:50;;;;;;;4.05;2.00;;;22.00;99.90;;;;;;4993763;28;20031;-49
2023/06/19 03:44:15;;;;;;;5.43;1.88;;;22.00;99.90;;;;;;4993029;28;20038;-49
2023/06/19 03:46:42;;;;;;;2.38;1.58;;;21.90;99.90;;;;;;4993735;28;20025;-50
2023/06/19 03:49:09;;;;;;;3.58;1.75;;;21.80;99.90;;;;;;4992585;28;20045;-43
2023/06/19 03:51:35;;;;;;;3.17;1.70;;;21.70;99.90;;;;;;4985879;28;20173;-47
2023/06/19 03:54:01;;;;;;;5.50;1.60;;;21.60;99.90;;;;;;4993700;28;20129;-49
2023/06/19 03:56:27;;;;;;;3.03;1.70;;;21.50;99.90;;;;;;4992666;28;20030;-54
2023/06/19 03:58:53;;;;;;;2.47;1.38;;;21.60;99.90;;;;;;4993559;28;20042;-46
2023/06/19 04:01:19;;;;;;;3.38;1.67;;;21.50;99.90;;;;;;4992294;28;20026;-50
2023/06/19 04:03:44;;;;;;;3.72;1.40;;;21.50;99.90;;;;;;4993298;28;20089;-50
2023/06/19 04:06:10;;;;;;;4.03;1.52;;;21.40;99.90;;;;;;4975455;28;20030;-52
2023/06/19 04:08:36;;;;;;;5.10;1.23;;;21.30;99.90;;;;;;4975964;28;20485;-44
2023/06/19 04:11:02;;;;;;;4.25;1.65;;;21.20;99.90;;;;;;4992449;28;20040;-45
2023/06/19 04:13:28;;;;;;;3.70;1.27;;;21.20;99.90;;;;;;4991913;28;20048;-45
2023/06/19 04:15:53;;;;;;;3.88;1.73;;;21.30;99.90;;;;;;4992500;28;20062;-50
2023/06/19 04:18:19;;;;;;;3.05;1.55;;;21.40;99.90;;;;;;4993530;28;20034;-49
2023/06/19 04:20:45;;;;;;;2.78;1.00;;;21.40;99.90;;;;;;4992010;28;20025;-50
2023/06/19 04:23:11;;;;;;;2.13;1.20;;;21.40;99.90;;;;;;4993220;28;20026;-50
2023/06/19 04:25:37;;;;;;;2.22;1.13;;;21.40;99.90;;;;;;4975118;28;20061;-49
2023/06/19 04:28:03;;;;;;;2.53;1.20;;;21.50;99.90;;;;;;4993087;28;20081;-51
2023/06/19 04:30:30;;;;;;;2.13;0.90;;;21.50;99.90;;;;;;4991948;28;20414;-46
2023/06/19 04:32:58;;;;;;;6.13;1.65;;;21.50;99.90;;;;;;4975597;28;20035;-50
2023/06/19 04:35:24;;;;;;;2.58;1.15;;;21.50;99.90;;;;;;4991959;28;20061;-48
2023/06/19 04:37:50;;;;;;;3.58;1.30;;;21.60;99.90;;;;;;4975536;28;20481;-49
2023/06/19 04:40:16;;;;;;;3.22;1.20;;;21.70;99.90;;;;;;4991089;28;20141;-49
2023/06/19 04:42:41;;;;;;;2.72;1.23;;;21.70;99.90;;;;;;4972118;28;20031;-49
2023/06/19 04:45:09;;;;;;;4.93;1.40;;;21.80;99.90;;;;;;4980917;28;20026;-49
2023/06/19 04:47:35;;;;;;;4.88;1.00;;;21.80;99.90;;;;;;4984985;28;20092;-51
2023/06/19 04:50:01;;;;;;;2.72;1.40;;;21.90;99.90;;;;;;4973990;28;20038;-49
2023/06/19 04:52:26;;;;;;;1.92;1.15;;;21.80;99.90;;;;;;4991496;28;20038;-46
2023/06/19 04:54:52;;;;;;;2.65;1.35;;;21.90;99.90;;;;;;4991613;28;20030;-46
2023/06/19 04:57:18;;;;;;;3.03;1.33;;;21.90;99.90;;;;;;4992556;28;20209;-48
2023/06/19 04:59:44;;;;;;;2.30;1.23;;;21.90;99.90;;;;;;4974150;28;20402;-50
2023/06/19 05:02:11;;;;;;;7.05;1.10;;;22.00;99.90;;;;;;4991205;28;20062;-50
2023/06/19 05:04:36;;;;;;;2.03;1.20;;;21.90;99.90;;;;;;4991449;28;20030;-47
2023/06/19 05:07:02;;;;;;;1.73;1.10;;;22.00;99.90;;;;;;4992325;28;20034;-49
2023/06/19 05:09:29;;;;;;;2.17;1.42;;;22.00;99.90;;;;;;4991451;28;20125;-48
2023/06/19 05:11:57;;;;;;;3.35;1.27;;;22.00;99.90;;;;;;4991064;28;20026;-48
2023/06/19 05:14:23;;;;;;;2.38;1.45;;;21.90;99.90;;;;;;4991256;28;20044;-51
2023/06/19 05:16:48;;;;;;;1.75;0.77;;;22.00;99.90;;;;;;4991515;28;20026;-45
2023/06/19 05:19:14;;;;;;;3.83;1.58;;;22.00;99.90;;;;;;4991150;28;20471;-44
2023/06/19 05:21:40;;;;;;;1.95;0.85;;;22.10;99.90;;;;;;4991868;28;20490;-44
2023/06/19 05:24:06;;;;;;;8.45;2.28;;;22.10;99.90;;;;;;4991428;28;20030;-50
2023/06/19 05:26:31;;;;;;;2.25;1.35;;;22.20;99.90;;;;;;4991483;28;20053;-51
2023/06/19 05:28:57;;;;;;;3.05;1.40;;;22.20;99.90;;;;;;4991903;28;20505;-53
2023/06/19 05:31:23;;;;;;;4.07;1.58;;;22.20;99.90;;;;;;4990568;28;20077;-51
2023/06/19 05:33:49;;;;;;;3.22;1.50;;;22.10;99.90;;;;;;4974469;28;20094;-46
2023/06/19 05:36:14;;;;;;;3.45;1.70;;;22.10;99.90;;;;;;4990914;28;20034;-48
2023/06/19 05:38:40;;;;;;;3.22;1.20;;;22.20;99.90;;;;;;4991770;28;20022;-48
2023/06/19 05:41:06;;;;;;;2.65;1.42;;;22.10;99.90;;;;;;4990527;28;20052;-51
2023/06/19 05:43:32;;;;;;;6.22;1.42;;;22.20;99.90;;;;;;4991730;28;20121;-49
2023/06/19 05:46:02;;;;;;;3.88;1.42;;;22.20;99.90;;;;;;4990919;28;20115;-46
2023/06/19 05:48:27;;;;;;;6.82;1.80;;;22.30;99.90;;;;;;4989458;28;21407;-45
2023/06/19 05:50:53;;;;;;;2.85;1.45;;;22.20;99.90;;;;;;4989897;28;20034;-48
2023/06/19 05:53:19;;;;;;;3.33;1.35;;;22.10;99.90;;;;;;4991242;28;20113;-49
2023/06/19 05:55:45;;;;;;;5.30;1.10;;;22.20;99.90;;;;;;4990649;28;20042;-51
2023/06/19 05:58:11;;;;;;;1.83;1.10;;;22.30;99.90;;;;;;4970654;28;20475;-51
2023/06/19 06:00:37;;;;;;;4.72;1.73;;;22.50;99.90;;;;;;4983453;28;20034;-46
2023/06/19 06:03:02;;;;;;;3.78;1.80;;;22.50;99.90;;;;;;4974104;28;20030;-47
2023/06/19 06:05:28;;;;;;;2.15;1.17;;;22.40;99.90;;;;;;4990433;28;20375;-44
2023/06/19 06:07:55;;;;;;;3.72;1.50;;;22.40;99.90;;;;;;4991641;28;20022;-51
2023/06/19 06:10:22;;;;;;;3.25;1.38;;;22.40;99.90;;;;;;4973124;28;20089;-49
2023/06/19 06:12:49;;;;;;;3.78;1.58;;;22.40;99.90;;;;;;4974129;28;20073;-46
2023/06/19 06:15:15;;;;;;;3.60;1.45;;;22.40;99.90;;;;;;4973294;28;20068;-44
2023/06/19 06:17:41;;;;;;;3.88;1.20;;;22.40;99.90;;;;;;4973727;28;20023;-50
2023/06/19 06:20:11;;;;;;;2.28;1.25;;;22.50;99.90;;;;;;4972376;28;20486;-46
2023/06/19 06:22:37;;;;;;;2.03;1.10;;;22.70;99.90;;;;;;4974253;28;20026;-49
2023/06/19 06:25:04;;;;;;;3.65;1.65;;;22.80;99.90;;;;;;4990408;28;20119;-44
2023/06/19 06:27:30;;;;;;;3.10;1.13;;;22.80;99.90;;;;;;4990657;28;20107;-49
2023/06/19 06:29:55;;;;;;;1.90;1.30;;;22.90;99.90;;;;;;4989822;28;20161;-57
2023/06/19 06:32:21;;;;;;;3.75;1.90;;;23.00;99.90;;;;;;4991143;28;20109;-57
2023/06/19 06:34:47;;;;;;;11.07;2.45;;;23.00;99.90;;;;;;4990227;28;20061;-58
2023/06/19 06:37:13;;;;;;;2.88;1.45;;;23.00;99.90;;;;;;4991129;28;20130;-57
2023/06/19 06:39:39;;;;;;;4.40;1.88;;;23.20;99.90;;;;;;4987454;28;20042;-58
2023/06/19 06:42:05;;;;;;;2.45;1.40;;;23.10;99.90;;;;;;4990473;28;20030;-55
2023/06/19 06:44:30;;;;;;;1.65;1.02;;;23.10;99.90;;;;;;4990150;28;20029;-59
2023/06/19 06:46:56;;;;;;;3.33;1.40;;;23.10;99.90;;;;;;4969034;28;20187;-59
2023/06/19 06:49:22;;;;;;;3.22;1.75;;;23.20;99.90;;;;;;4989798;28;20089;-59
2023/06/19 06:51:48;;;;;;;6.03;2.25;;;23.10;99.90;;;;;;4990653;28;20033;-59
2023/06/19 06:54:14;;;;;;;2.92;1.42;;;23.20;99.90;;;;;;4989950;28;20057;-59
2023/06/19 06:56:40;;;;;;;4.10;1.45;;;23.40;99.90;;;;;;4990908;28;20051;-58
2023/06/19 06:59:05;;;;;;;7.88;2.30;;;23.20;99.90;;;;;;4990134;28;20474;-60
2023/06/19 07:01:31;;;;;;;6.22;2.00;;;23.20;99.90;;;;;;4990407;28;20023;-48
2023/06/19 07:03:57;;;;;;;2.42;1.40;;;23.20;99.90;;;;;;4990830;28;20049;-47
2023/06/19 07:06:22;;;;;;;4.70;2.17;;;23.20;99.90;;;;;;4989765;28;20041;-47
2023/06/19 07:08:48;;;;;;;11.60;1.83;;;23.10;99.90;;;;;;4990324;28;20466;-47
2023/06/19 07:11:14;;;;;;;6.05;1.92;;;23.20;99.90;;;;;;4988271;28;20099;-47
2023/06/19 07:13:41;;;;;;;3.92;2.05;;;23.30;99.90;;;;;;4983675;28;20034;-46
2023/06/19 07:16:07;;;;;;;3.83;1.95;;;23.40;99.90;;;;;;4985615;28;20034;-49
2023/06/19 07:18:35;;;;;;;4.75;2.22;;;23.50;99.90;;;;;;4982722;28;20023;-50
2023/06/19 07:21:02;;;;;;;5.28;2.00;;;23.30;99.90;;;;;;4971986;28;20128;-51
2023/06/19 07:23:28;;;;;;;5.00;2.00;;;23.50;99.90;;;;;;4983220;28;20034;-50
2023/06/19 07:25:54;;;;;;;5.45;2.47;;;23.70;99.90;;;;;;4968978;28;20042;-53
2023/06/19 07:28:19;;;;;;;2.70;1.80;;;23.90;99.90;;;;;;4988403;28;20041;-48
2023/06/19 07:30:47;;;;;;;4.15;2.15;;;24.00;99.90;;;;;;4989125;28;20035;-67
2023/06/19 07:33:13;;;;;;;3.22;1.73;;;24.20;99.90;;;;;;4967343;28;20391;-68
2023/06/19 07:35:39;;;;;;;3.90;2.40;;;24.20;99.90;;;;;;4968926;28;20098;-68
2023/06/19 07:38:05;;;;;;;3.90;2.17;;;24.10;99.90;;;;;;4969267;28;20037;-66
2023/06/19 07:40:30;;;;;;;6.00;2.55;;;24.00;99.90;;;;;;4991562;28;20041;-66
2023/06/19 07:42:56;;;;;;;6.50;2.63;;;24.00;99.90;;;;;;4993717;28;20026;-67
2023/06/19 07:45:23;;;;;;;3.20;1.90;;;24.00;99.90;;;;;;4992796;28;20504;-67
2023/06/19 07:47:56;;;;;;;2.58;1.52;;;24.00;99.90;;;;;;4993494;28;20062;-65
2023/06/19 07:50:22;;;;;;;5.88;2.58;;;23.90;99.90;;;;;;4992318;28;20042;-66
2023/06/19 07:52:48;;;;;;;4.20;2.10;;;24.00;99.90;;;;;;4985117;28;20035;-65
2023/06/19 07:55:14;;;;;;;4.57;1.77;;;24.10;99.90;;;;;;4987255;28;20030;-65
2023/06/19 07:57:40;;;;;;;3.88;2.53;;;24.10;99.90;;;;;;4968645;28;20057;-65
2023/06/19 08:00:12;;;;;;;2.88;2.00;;;24.10;99.90;;;;;;4984104;28;20031;-66
2023/06/19 08:02:39;;;;;;;4.60;2.60;;;24.00;99.90;;;;;;4989412;28;20038;-64
2023/06/19 08:05:07;;;;;;;3.22;1.90;;;24.20;99.90;;;;;;4987478;28;20033;-66
2023/06/19 08:07:34;;;;;;;3.20;1.85;;;24.20;99.90;;;;;;4993368;28;20060;-64
2023/06/19 08:10:00;;;;;;;3.92;2.10;;;24.00;99.90;;;;;;4991959;28;20117;-66
2023/06/19 08:12:26;;;;;;;4.28;2.92;;;24.10;99.90;;;;;;4991890;28;20106;-67
2023/06/19 08:14:51;;;;;;;4.68;2.22;;;24.30;99.90;;;;;;4992558;28;20552;-66
2023/06/19 08:17:17;;;;;;;4.20;2.10;;;24.50;99.90;;;;;;4970738;28;20126;-65
2023/06/19 08:19:43;;;;;;;4.63;2.25;;;24.20;99.90;;;;;;4974757;28;20522;-65
2023/06/19 08:22:09;;;;;;;3.42;1.77;;;24.30;99.90;;;;;;4993090;28;20084;-60
2023/06/19 08:24:36;;;;;;;5.57;2.78;;;24.20;99.90;;;;;;4992314;28;20371;-60
2023/06/19 08:27:02;;;;;;;3.55;2.10;;;24.20;99.90;;;;;;4991882;28;20030;-59
2023/06/19 08:29:28;;;;;;;4.07;2.42;;;24.50;99.90;;;;;;4991710;28;20046;-54
2023/06/19 08:31:54;;;;;;;6.57;2.75;;;24.30;99.90;;;;;;4992953;28;20658;-54
2023/06/19 08:34:20;;;;;;;4.57;2.47;;;24.30;99.90;;;;;;4972602;28;20031;-48
2023/06/19 08:36:45;;;;;;;3.95;2.33;;;24.30;99.90;;;;;;4992491;28;20026;-51
2023/06/19 08:39:11;;;;;;;5.43;2.65;;;24.10;99.90;;;;;;4985489;28;20042;-52
2023/06/19 08:41:38;;;;;;;7.30;2.53;;;24.10;99.90;;;;;;4992476;28;20026;-53
2023/06/19 08:44:05;;;;;;;4.95;2.17;;;24.30;99.90;;;;;;4975246;28;20034;-49
2023/06/19 08:46:31;;;;;;;3.72;2.13;;;24.30;99.90;;;;;;4984251;28;20038;-53
2023/06/19 08:48:57;;;;;;;4.13;2.13;;;24.40;99.90;;;;;;4986197;28;20053;-49
2023/06/19 08:51:22;;;;;;;3.17;1.92;;;24.60;99.90;;;;;;4989788;28;20070;-50
2023/06/19 08:54:03;;;;;;;5.60;2.70;;;24.70;99.90;;;;;;4974601;28;20046;-45
2023/06/19 08:56:34;;;;;;;4.05;2.20;;;24.80;99.90;;;;;;4992547;28;20026;-49
2023/06/19 08:59:17;;;;;;;4.72;2.38;;;25.10;99.90;;;;;;4985630;28;20035;-46
2023/06/19 09:01:54;;;;;;;5.07;2.22;;;25.10;99.90;;;;;;4976769;23;20050;-51
2023/06/19 09:04:26;;;;;;;6.63;2.42;;;24.90;99.90;;;;;;4987223;28;20037;-51
2023/06/19 09:06:57;;;;;;;4.43;2.50;;;25.10;99.90;;;;;;4985605;28;20026;-51
2023/06/19 09:09:25;;;;;;;3.78;2.35;;;25.20;99.90;;;;;;4967552;28;20038;-66
2023/06/19 09:12:02;;;;;;;4.07;2.42;;;25.00;99.90;;;;;;4977991;28;20045;-66
2023/06/19 09:14:41;;;;;;;5.18;2.30;;;24.80;99.90;;;;;;4991532;28;20593;-66
2023/06/19 09:17:11;;;;;;;9.55;2.30;;;24.80;99.90;;;;;;4985707;28;20542;-66
2023/06/19 09:19:39;;;;;;;5.10;2.38;;;24.80;99.90;;;;;;4974778;28;20073;-67
2023/06/19 09:22:07;;;;;;;3.53;2.35;;;24.60;99.90;;;;;;4985551;28;20034;-66
2023/06/19 09:24:40;;;;;;;4.30;2.28;;;24.80;99.90;;;;;;4974769;28;20041;-66
2023/06/19 09:27:18;;;;;;;3.65;2.42;;;24.90;99.90;;;;;;4985632;28;20049;-66
2023/06/19 09:29:49;;;;;;;3.78;2.38;;;24.80;99.90;;;;;;4968497;28;20046;-66
2023/06/19 09:32:20;;;;;;;6.60;2.30;;;24.80;99.90;;;;;;4963975;28;20034;-66
2023/06/19 09:34:49;;;;;;;4.82;2.28;;;24.90;99.90;;;;;;4974672;28;20045;-66
2023/06/19 09:37:15;;;;;;;5.22;2.95;;;25.10;99.90;;;;;;4985305;28;20049;-66
2023/06/19 09:39:41;;;;;;;11.10;2.72;;;25.20;99.90;;;;;;4971015;28;20031;-66
2023/06/19 09:42:08;;;;;;;5.22;1.95;;;25.20;99.90;;;;;;4969275;28;20038;-66
2023/06/19 09:44:42;;;;;;;4.22;2.20;;;25.20;99.90;;;;;;4984095;28;20041;-66
2023/06/19 09:47:22;;;;;;;4.07;1.95;;;25.30;99.90;;;;;;4973840;28;20482;-66
2023/06/19 09:49:54;;;;;;;3.63;2.25;;;25.40;99.90;;;;;;4974879;28;20113;-66
2023/06/19 09:52:24;;;;;;;4.82;2.20;;;25.40;99.90;;;;;;4974196;28;20076;-66
2023/06/19 09:54:51;;;;;;;;;;;25.50;99.90;;;;;;4974788;28;20034;-66
2023/06/19 09:57:19;;;;;;;5.28;2.80;;;25.50;99.90;;;;;;4985122;28;20000;-66
2023/06/19 09:59:56;;;;;;;3.28;2.03;;;25.80;99.90;;;;;;4991311;28;20030;-66
2023/06/19 10:02:25;;;;;;;3.70;2.53;;;26.00;99.90;;;;;;4973548;28;20088;-66
2023/06/19 10:04:55;;;;;;;4.10;2.45;;;25.80;99.90;;;;;;4991134;28;20113;-65
2023/06/19 10:07:24;;;;;;;5.33;2.97;;;25.80;99.90;;;;;;4984528;28;20030;-65
2023/06/19 10:10:09;;;;;;;4.85;2.20;;;25.80;99.90;;;;;;4991248;28;20372;-65
2023/06/19 10:12:38;;;;;;;4.65;2.55;;;26.00;99.90;;;;;;4984820;28;20026;-66
2023/06/19 10:15:23;;;;;;;4.50;2.72;;;26.00;99.90;;;;;;4988972;28;20037;-66
2023/06/19 10:18:02;;;;;;;5.75;2.30;;;26.10;99.90;;;;;;4990792;28;20076;-67
2023/06/19 10:20:37;;;;;;;3.55;2.30;;;26.30;99.90;;;;;;4974507;28;20034;-63
2023/06/19 10:23:18;;;;;;;4.47;2.45;;;26.60;99.90;;;;;;4983856;28;20141;-65
2023/06/19 10:26:00;;;;;;;3.55;2.13;;;26.70;99.90;;;;;;4984820;28;20030;-68
2023/06/19 10:28:32;;;;;;;3.47;2.10;;;26.80;99.30;;;;;;4991218;28;20470;-65
2023/06/19 10:31:07;;;;;;;3.30;1.98;;;27.00;99.40;;;;;;4989263;28;20077;-66
2023/06/19 10:33:36;;;;;;;3.42;2.05;;;27.20;98.20;;;;;;4990790;28;20048;-66
2023/06/19 10:36:16;;;;;;;4.15;1.83;;;27.30;97.50;;;;;;4971806;28;20038;-66
2023/06/19 10:38:47;;;;;;;6.28;1.73;;;27.10;98.00;;;;;;4955928;28;20041;-66
2023/06/19 10:41:17;;;;;;;3.83;2.60;;;27.40;97.80;;;;;;4972409;28;20397;-66
2023/06/19 10:43:56;;;;;;;3.97;1.80;;;27.30;98.20;;;;;;4989044;28;20802;-67
2023/06/19 10:46:23;;;;;;;4.22;1.98;;;27.50;97.70;;;;;;4973093;28;20061;-66
2023/06/19 10:48:51;;;;;;;3.10;2.05;;;27.70;97.60;;;;;;4984531;28;20038;-66
2023/06/19 10:51:20;;;;;;;4.03;2.10;;;27.80;97.70;;;;;;4973567;28;20038;-67
2023/06/19 10:53:46;;;;;;;5.60;1.90;;;28.00;97.20;;;;;;4972925;28;20085;-66
2023/06/19 10:56:11;;;;;;;4.22;2.30;;;28.20;95.80;;;;;;4973555;28;20034;-67
2023/06/19 10:58:37;;;;;;;4.53;2.20;;;28.20;96.10;;;;;;4984544;28;20030;-68
2023/06/19 11:01:03;;;;;;;3.38;1.80;;;28.30;95.80;;;;;;4990464;28;20129;-69
2023/06/19 11:03:31;;;;;;;3.45;1.75;;;28.20;95.80;;;;;;4984505;28;20026;-74
2023/06/19 11:05:57;;;;;;;3.90;1.65;;;28.20;95.20;;;;;;4972600;28;20030;-73
2023/06/19 11:08:23;;;;;;;4.90;2.28;;;28.20;94.70;;;;;;4973501;28;20033;-68
2023/06/19 11:10:50;;;;;;;3.83;1.58;;;28.20;94.80;;;;;;4990700;28;20046;-69
2023/06/19 11:13:20;;;;;;;3.20;1.80;;;28.20;94.30;;;;;;4973749;28;20045;-68
2023/06/19 11:15:51;;;;;;;2.53;1.80;;;28.40;94.30;;;;;;4994190;28;20113;-70
2023/06/19 11:18:18;;;;;;;3.30;1.50;;;28.50;94.10;;;;;;4977748;28;20100;-69
2023/06/19 11:20:50;;;;;;;2.63;1.35;;;28.40;94.10;;;;;;4976818;28;20030;-69
2023/06/19 11:23:17;;;;;;;6.35;3.03;;;28.90;93.90;;;;;;4977376;28;20462;-71
2023/06/19 11:25:43;;;;;;;3.63;1.60;;;29.00;93.70;;;;;;4994481;28;20390;-70
2023/06/19 11:28:22;;;;;;;3.20;1.60;;;29.00;94.10;;;;;;4975914;28;20516;-70
2023/06/19 11:30:57;;;;;;;3.90;2.40;;;28.90;92.80;;;;;;4991346;28;20080;-69
2023/06/19 11:33:22;;;;;;;5.22;2.08;;;28.70;92.80;;;;;;4989902;28;20030;-69
2023/06/19 11:35:54;;;;;;;2.17;1.50;;;28.80;92.80;;;;;;4992879;28;20041;-70
2023/06/19 11:38:22;;;;;;;2.45;1.42;;;28.30;92.90;;;;;;4976813;28;20486;-70
2023/06/19 11:40:48;;;;;;;6.97;2.22;;;28.70;93.20;;;;;;4993478;28;20065;-70
2023/06/19 11:43:31;;;;;;;3.22;1.95;;;28.30;93.40;;;;;;4977124;28;20113;-70
2023/06/19 11:46:07;;;;;;;5.45;1.98;;;29.00;92.50;;;;;;4994410;28;20039;-70
2023/06/19 11:48:37;;;;;;;3.17;1.55;;;28.60;92.70;;;;;;4976749;28;20038;-70
2023/06/19 11:51:03;;;;;;;3.60;1.90;;;29.30;92.60;;;;;;4993964;28;20039;-70
2023/06/19 11:53:29;;;;;;;3.72;1.60;;;30.00;91.90;;;;;;4994034;28;20045;-71
2023/06/19 11:55:56;;;;;;;3.10;1.33;;;30.40;91.30;;;;;;4994146;28;20105;-70
2023/06/19 11:58:22;;;;;;;4.82;2.03;;;30.30;91.10;;;;;;4976611;28;20117;-70
2023/06/19 12:00:48;;;;;;;4.13;1.58;;;29.90;90.90;;;;;;4976417;28;20109;-71
2023/06/19 12:03:14;;;;;;;3.15;1.77;;;30.00;90.70;;;;;;4976595;28;20109;-71
2023/06/19 12:05:40;;;;;;;2.50;1.40;;;29.50;91.60;;;;;;4976567;28;20455;-70
2023/06/19 12:08:06;;;;;;;3.45;1.85;;;29.70;91.40;;;;;;4976159;28;20117;-69
2023/06/19 12:10:34;;;;;;;7.20;2.08;;;30.00;91.70;;;;;;4976114;28;20049;-70
2023/06/19 12:13:00;;;;;;;3.42;1.90;;;29.00;92.50;;;;;;4976793;28;20027;-69
2023/06/19 12:15:26;;;;;;;4.22;2.33;;;29.20;92.40;;;;;;4976373;28;20053;-70
2023/06/19 12:17:52;;;;;;;3.35;1.70;;;29.20;92.10;;;;;;4993492;28;20022;-70
2023/06/19 12:20:18;;;;;;;6.47;1.98;;;28.90;92.30;;;;;;4975757;28;20030;-70
2023/06/19 12:22:44;;;;;;;3.00;1.85;;;29.00;92.20;;;;;;4976198;28;20034;-71
2023/06/19 12:25:10;;;;;;;3.00;1.73;;;29.10;92.50;;;;;;4992693;28;20030;-70
2023/06/19 12:27:41;;;;;;;3.40;1.98;;;29.10;92.40;;;;;;4992816;28;20061;-71
2023/06/19 12:30:07;;;;;;;3.53;2.00;;;29.50;92.00;;;;;;4992773;28;20071;-70
2023/06/19 12:32:34;;;;;;;2.90;1.67;;;29.40;92.30;;;;;;4992132;28;20030;-70
2023/06/19 12:34:59;;;;;;;3.33;1.88;;;29.60;92.10;;;;;;4976018;28;20072;-70
2023/06/19 12:37:25;;;;;;;2.63;1.52;;;29.30;91.90;;;;;;4975975;28;20030;-70
2023/06/19 12:39:51;;;;;;;4.05;1.52;;;29.00;92.30;;;;;;4992650;28;20034;-71
2023/06/19 12:42:17;;;;;;;3.45;1.95;;;29.00;92.60;;;;;;4992718;28;20367;-70
2023/06/19 12:44:46;;;;;;;2.72;1.50;;;29.00;92.40;;;;;;4975368;28;20070;-70
2023/06/19 12:47:13;;;;;;;3.13;1.77;;;29.10;92.50;;;;;;4992373;28;20145;-69
2023/06/19 12:49:39;;;;;;;2.63;1.83;;;29.50;92.10;;;;;;4992098;28;20493;-69